F/V Gwel A Vo — FHIJ — position and weather

sailwx.info

Track history (hours):
 
Tides and Currents Weather Stations Pressure Air Temp Water Temp Dewpoint Dewpoint Depression Visibility Wind Speed Wind Dir Waves Ship Positions

F/V Gwel A Vo

Last reported at 2017-Dec-21 12:07 UTC. Time now 2018-Jan-22 00:33 UTC.
Position N 48°01' W 004°44'.
Warning: this ship's position is 31 days out of date.

Length 25 m.

Type: Fishing. MMSI: 228131000.

Date/timePositionNaut miles runAvg speedWind from/ knotsBaromVisibWave heightAir tempDewpointWater temp
2017-Dec-21 12:07N 48°01' W 004°44'1 7.2
2017-Dec-21 11:58N 48°02' W 004°46'4 8.1
2017-Dec-21 11:30N 48°04' W 004°50'6 9.3
2017-Dec-21 10:53N 48°08' W 004°56'  
2017-Dec-18 08:57N 50°50' W 008°26'  
2017-Dec-15 08:28N 51°26' W 008°13'2 3.2
2017-Dec-15 07:59N 51°27' W 008°12'2 4.7
2017-Dec-15 07:30N 51°30' W 008°11'2 3.5
2017-Dec-15 07:00N 51°31' W 008°10'2 3.0
2017-Dec-15 06:30N 51°32' W 008°08'1 2.7
2017-Dec-15 06:00N 51°33' W 008°07'2 3.3
2017-Dec-15 05:30N 51°34' W 008°05'2 3.1
2017-Dec-15 05:00N 51°35' W 008°02'1 3.0
2017-Dec-15 04:30N 51°35' W 008°00'1 2.4
2017-Dec-15 04:00N 51°35' W 007°58'4 2.8
2017-Dec-15 02:28N 51°34' W 007°51'2 1.4
2017-Dec-15 01:00N 51°36' W 007°49'2 2.7
2017-Dec-15 00:21N 51°37' W 007°47'4 0.5
2017-Dec-14 15:52N 51°38' W 007°41'3 3.0
2017-Dec-14 15:00N 51°40' W 007°43'1 3.0
2017-Dec-14 14:31N 51°41' W 007°45'2 2.6
2017-Dec-14 13:52N 51°40' W 007°42'2 2.9
2017-Dec-14 13:04N 51°38' W 007°42'1 0.6
2017-Dec-14 11:27N 51°37' W 007°41'1 2.8
2017-Dec-14 10:59N 51°39' W 007°41'1 3.0
2017-Dec-14 10:30N 51°40' W 007°43'1 2.9
2017-Dec-14 10:00N 51°41' W 007°44'1 1.6
2017-Dec-14 09:30N 51°41' W 007°43'241 5.2
2017-Dec-12 10:54N 48°06' W 004°53'4 9.0
2017-Dec-12 10:30N 48°04' W 004°49'23 9.1
2017-Dec-12 07:58N 47°49' W 004°23'  
Track history (hours):
 
Tides and Currents Weather Stations Pressure Air Temp Water Temp Dewpoint Dewpoint Depression Visibility Wind Speed Wind Dir Waves Ship Positions

F/V Gwel A Vo

Last reported at 2017-Dec-21 12:07 UTC. Time now 2018-Jan-22 00:33 UTC.
Position N 48°01' W 004°44'.
Warning: this ship's position is 31 days out of date.

Length 25 m.

Type: Fishing. MMSI: 228131000.

Date/timePositionNaut miles runAvg speedWind from/ knotsBaromVisibWave heightAir tempDewpointWater temp
2017-Dec-21 12:07N 48°01' W 004°44'1 7.2
2017-Dec-21 11:58N 48°02' W 004°46'4 8.1
2017-Dec-21 11:30N 48°04' W 004°50'6 9.3
2017-Dec-21 10:53N 48°08' W 004°56'  
2017-Dec-18 08:57N 50°50' W 008°26'  
2017-Dec-15 08:28N 51°26' W 008°13'2 3.2
2017-Dec-15 07:59N 51°27' W 008°12'2 4.7
2017-Dec-15 07:30N 51°30' W 008°11'2 3.5
2017-Dec-15 07:00N 51°31' W 008°10'2 3.0
2017-Dec-15 06:30N 51°32' W 008°08'1 2.7
2017-Dec-15 06:00N 51°33' W 008°07'2 3.3
2017-Dec-15 05:30N 51°34' W 008°05'2 3.1
2017-Dec-15 05:00N 51°35' W 008°02'1 3.0
2017-Dec-15 04:30N 51°35' W 008°00'1 2.4
2017-Dec-15 04:00N 51°35' W 007°58'4 2.8
2017-Dec-15 02:28N 51°34' W 007°51'2 1.4
2017-Dec-15 01:00N 51°36' W 007°49'2 2.7
2017-Dec-15 00:21N 51°37' W 007°47'4 0.5
2017-Dec-14 15:52N 51°38' W 007°41'3 3.0
2017-Dec-14 15:00N 51°40' W 007°43'1 3.0
2017-Dec-14 14:31N 51°41' W 007°45'2 2.6
2017-Dec-14 13:52N 51°40' W 007°42'2 2.9
2017-Dec-14 13:04N 51°38' W 007°42'1 0.6
2017-Dec-14 11:27N 51°37' W 007°41'1 2.8
2017-Dec-14 10:59N 51°39' W 007°41'1 3.0
2017-Dec-14 10:30N 51°40' W 007°43'1 2.9
2017-Dec-14 10:00N 51°41' W 007°44'1 1.6
2017-Dec-14 09:30N 51°41' W 007°43'241 5.2
2017-Dec-12 10:54N 48°06' W 004°53'4 9.0
2017-Dec-12 10:30N 48°04' W 004°49'23 9.1
2017-Dec-12 07:58N 47°49' W 004°23'  

Dump ship's entire track history